sensor_id;sensor_type;location;lat;lon;timestamp;pressure;altitude;pressure_sealevel;temperature;humidity
54554;BME280;40450;55.848;-3.572;2022-07-01T00:00:58;99045.61;;;15.32;76.88
54554;BME280;40450;55.848;-3.572;2022-07-01T00:03:29;99049.88;;;15.10;77.73
54554;BME280;40450;55.848;-3.572;2022-07-01T00:05:59;99050.91;;;15.11;78.09
54554;BME280;40450;55.848;-3.572;2022-07-01T00:08:30;99045.59;;;15.43;77.25
54554;BME280;40450;55.848;-3.572;2022-07-01T00:11:00;99038.34;;;15.93;76.00
54554;BME280;40450;55.848;-3.572;2022-07-01T00:13:32;99030.72;;;16.75;73.37
54554;BME280;40450;55.848;-3.572;2022-07-01T00:16:03;99025.13;;;17.37;72.99
54554;BME280;40450;55.848;-3.572;2022-07-01T00:18:31;99023.86;;;17.82;69.32
54554;BME280;40450;55.848;-3.572;2022-07-01T00:21:02;99023.38;;;17.47;69.62
54554;BME280;40450;55.848;-3.572;2022-07-01T00:23:32;99031.21;;;17.00;70.95
54554;BME280;40450;55.848;-3.572;2022-07-01T00:26:03;99031.14;;;16.41;73.34
54554;BME280;40450;55.848;-3.572;2022-07-01T00:28:33;99029.36;;;16.44;73.50
54554;BME280;40450;55.848;-3.572;2022-07-01T00:31:04;99028.53;;;16.49;73.36
54554;BME280;40450;55.848;-3.572;2022-07-01T00:33:34;99032.14;;;16.62;73.08
54554;BME280;40450;55.848;-3.572;2022-07-01T00:36:05;99036.14;;;16.87;72.34
54554;BME280;40450;55.848;-3.572;2022-07-01T00:38:35;99031.61;;;17.06;71.54
54554;BME280;40450;55.848;-3.572;2022-07-01T00:41:04;99027.77;;;17.42;70.44
54554;BME280;40450;55.848;-3.572;2022-07-01T00:43:35;99026.13;;;17.92;68.96
54554;BME280;40450;55.848;-3.572;2022-07-01T00:46:05;99027.62;;;17.91;68.82
54554;BME280;40450;55.848;-3.572;2022-07-01T00:48:37;99035.48;;;17.60;68.98
54554;BME280;40450;55.848;-3.572;2022-07-01T00:51:06;99033.16;;;16.58;72.41
54554;BME280;40450;55.848;-3.572;2022-07-01T00:53:37;99036.14;;;16.95;71.69
54554;BME280;40450;55.848;-3.572;2022-07-01T00:56:06;99038.52;;;17.20;70.75
54554;BME280;40450;55.848;-3.572;2022-07-01T00:58:37;99036.34;;;17.27;70.50
54554;BME280;40450;55.848;-3.572;2022-07-01T01:01:07;99037.28;;;16.75;71.50
54554;BME280;40450;55.848;-3.572;2022-07-01T01:03:38;99042.78;;;16.86;71.77
54554;BME280;40450;55.848;-3.572;2022-07-01T01:06:08;99040.98;;;16.84;71.89
54554;BME280;40450;55.848;-3.572;2022-07-01T01:08:38;99036.79;;;16.84;71.93
54554;BME280;40450;55.848;-3.572;2022-07-01T01:11:09;99034.03;;;17.23;70.66
54554;BME280;40450;55.848;-3.572;2022-07-01T01:13:39;99033.94;;;17.83;69.64
54554;BME280;40450;55.848;-3.572;2022-07-01T01:16:16;99031.99;;;17.98;68.40
54554;BME280;40450;55.848;-3.572;2022-07-01T01:18:40;99028.70;;;18.09;67.69
54554;BME280;40450;55.848;-3.572;2022-07-01T01:21:11;99029.07;;;18.24;67.52
54554;BME280;40450;55.848;-3.572;2022-07-01T01:23:42;99026.18;;;18.41;67.26
54554;BME280;40450;55.848;-3.572;2022-07-01T01:26:16;99022.33;;;18.30;66.42
54554;BME280;40450;55.848;-3.572;2022-07-01T01:28:42;99026.50;;;18.47;66.42
54554;BME280;40450;55.848;-3.572;2022-07-01T01:31:11;99028.56;;;18.38;65.69
54554;BME280;40450;55.848;-3.572;2022-07-01T01:33:43;99029.42;;;18.61;66.22
54554;BME280;40450;55.848;-3.572;2022-07-01T01:36:12;99028.96;;;18.79;65.24
54554;BME280;40450;55.848;-3.572;2022-07-01T01:38:45;99026.37;;;18.88;65.06
54554;BME280;40450;55.848;-3.572;2022-07-01T01:41:15;99025.19;;;18.86;63.83
54554;BME280;40450;55.848;-3.572;2022-07-01T01:43:45;99021.36;;;18.62;64.50
54554;BME280;40450;55.848;-3.572;2022-07-01T01:46:14;99018.37;;;18.66;64.47
54554;BME280;40450;55.848;-3.572;2022-07-01T01:48:44;99015.56;;;18.81;64.56
54554;BME280;40450;55.848;-3.572;2022-07-01T01:51:16;99009.72;;;18.67;63.88
54554;BME280;40450;55.848;-3.572;2022-07-01T01:53:45;99011.23;;;18.70;63.35
54554;BME280;40450;55.848;-3.572;2022-07-01T01:56:16;99010.34;;;18.66;63.82
54554;BME280;40450;55.848;-3.572;2022-07-01T01:58:46;99005.32;;;18.75;63.57
54554;BME280;40450;55.848;-3.572;2022-07-01T02:01:17;99003.51;;;18.34;64.76
54554;BME280;40450;55.848;-3.572;2022-07-01T02:03:49;99003.78;;;18.67;64.33
54554;BME280;40450;55.848;-3.572;2022-07-01T02:06:19;99000.25;;;19.07;63.94
54554;BME280;40450;55.848;-3.572;2022-07-01T02:08:49;99006.10;;;18.72;63.13
54554;BME280;40450;55.848;-3.572;2022-07-01T02:11:18;99005.55;;;18.76;63.51
54554;BME280;40450;55.848;-3.572;2022-07-01T02:13:48;99001.87;;;19.08;63.09
54554;BME280;40450;55.848;-3.572;2022-07-01T02:16:18;99007.50;;;18.68;62.95
54554;BME280;40450;55.848;-3.572;2022-07-01T02:18:49;99003.13;;;18.05;65.12
54554;BME280;40450;55.848;-3.572;2022-07-01T02:21:20;99002.70;;;18.28;64.55
54554;BME280;40450;55.848;-3.572;2022-07-01T02:23:50;98998.76;;;18.45;63.95
54554;BME280;40450;55.848;-3.572;2022-07-01T02:26:20;98997.15;;;18.08;64.92
54554;BME280;40450;55.848;-3.572;2022-07-01T02:28:50;98995.58;;;18.07;65.09
54554;BME280;40450;55.848;-3.572;2022-07-01T02:31:20;98992.16;;;17.78;66.21
54554;BME280;40450;55.848;-3.572;2022-07-01T02:33:51;98986.71;;;18.06;65.28
54554;BME280;40450;55.848;-3.572;2022-07-01T02:36:21;98988.39;;;17.71;66.15
54554;BME280;40450;55.848;-3.572;2022-07-01T02:38:51;98991.45;;;17.07;68.49
54554;BME280;40450;55.848;-3.572;2022-07-01T02:41:21;98991.70;;;16.91;69.26
54554;BME280;40450;55.848;-3.572;2022-07-01T02:43:55;98989.06;;;16.85;69.60
54554;BME280;40450;55.848;-3.572;2022-07-01T02:46:22;98990.78;;;16.53;70.83
54554;BME280;40450;55.848;-3.572;2022-07-01T02:48:54;98986.28;;;16.57;70.63
54554;BME280;40450;55.848;-3.572;2022-07-01T02:51:23;98992.21;;;16.57;70.58
54554;BME280;40450;55.848;-3.572;2022-07-01T02:53:55;98998.73;;;16.65;70.01
54554;BME280;40450;55.848;-3.572;2022-07-01T02:56:24;98998.89;;;16.61;70.13
54554;BME280;40450;55.848;-3.572;2022-07-01T02:58:54;98999.03;;;16.34;70.92
54554;BME280;40450;55.848;-3.572;2022-07-01T03:01:25;98996.14;;;16.57;70.30
54554;BME280;40450;55.848;-3.572;2022-07-01T03:03:55;98995.76;;;16.47;70.57
54554;BME280;40450;55.848;-3.572;2022-07-01T03:06:25;98997.71;;;16.88;70.19
54554;BME280;40450;55.848;-3.572;2022-07-01T03:08:57;99001.25;;;17.10;69.31
54554;BME280;40450;55.848;-3.572;2022-07-01T03:11:26;99005.64;;;17.20;68.15
54554;BME280;40450;55.848;-3.572;2022-07-01T03:13:56;99004.02;;;17.21;68.19
54554;BME280;40450;55.848;-3.572;2022-07-01T03:16:28;99000.83;;;16.97;68.86
54554;BME280;40450;55.848;-3.572;2022-07-01T03:18:57;98999.46;;;16.73;69.42
54554;BME280;40450;55.848;-3.572;2022-07-01T03:21:29;98996.45;;;16.73;69.38
54554;BME280;40450;55.848;-3.572;2022-07-01T03:23:58;98999.02;;;16.62;70.03
54554;BME280;40450;55.848;-3.572;2022-07-01T03:26:28;99001.60;;;16.69;69.81
54554;BME280;40450;55.848;-3.572;2022-07-01T03:28:59;99003.47;;;16.57;69.95
54554;BME280;40450;55.848;-3.572;2022-07-01T03:31:29;99002.11;;;16.61;70.13
54554;BME280;40450;55.848;-3.572;2022-07-01T03:34:00;99005.14;;;16.66;70.03
54554;BME280;40450;55.848;-3.572;2022-07-01T03:36:29;99003.42;;;17.18;69.53
54554;BME280;40450;55.848;-3.572;2022-07-01T03:39:00;99006.74;;;17.48;68.76
54554;BME280;40450;55.848;-3.572;2022-07-01T03:41:34;99007.24;;;17.73;67.61
54554;BME280;40450;55.848;-3.572;2022-07-01T03:44:01;99006.79;;;18.04;65.52
54554;BME280;40450;55.848;-3.572;2022-07-01T03:46:35;99006.22;;;17.96;65.64
54554;BME280;40450;55.848;-3.572;2022-07-01T03:49:02;98999.49;;;17.50;65.94
54554;BME280;40450;55.848;-3.572;2022-07-01T03:51:32;98999.75;;;18.33;65.65
54554;BME280;40450;55.848;-3.572;2022-07-01T03:54:02;98994.96;;;18.14;64.11
54554;BME280;40450;55.848;-3.572;2022-07-01T03:56:32;98994.45;;;17.80;64.96
54554;BME280;40450;55.848;-3.572;2022-07-01T03:59:03;98996.79;;;17.80;65.07
54554;BME280;40450;55.848;-3.572;2022-07-01T04:01:36;98997.75;;;17.53;66.09
54554;BME280;40450;55.848;-3.572;2022-07-01T04:06:36;99007.02;;;17.49;64.86
54554;BME280;40450;55.848;-3.572;2022-07-01T04:09:04;99000.42;;;17.30;66.80
54554;BME280;40450;55.848;-3.572;2022-07-01T04:11:35;99000.58;;;17.77;65.97
54554;BME280;40450;55.848;-3.572;2022-07-01T04:14:06;98995.86;;;17.91;65.50
54554;BME280;40450;55.848;-3.572;2022-07-01T04:16:35;98996.46;;;18.13;64.62
54554;BME280;40450;55.848;-3.572;2022-07-01T04:19:07;98998.28;;;18.20;64.37
54554;BME280;40450;55.848;-3.572;2022-07-01T04:21:36;98995.68;;;18.14;64.66
54554;BME280;40450;55.848;-3.572;2022-07-01T04:24:06;98996.06;;;18.08;64.79
54554;BME280;40450;55.848;-3.572;2022-07-01T04:26:38;98995.64;;;17.59;66.48
54554;BME280;40450;55.848;-3.572;2022-07-01T04:29:08;98998.74;;;18.05;65.09
54554;BME280;40450;55.848;-3.572;2022-07-01T04:31:38;98997.91;;;17.95;65.41
54554;BME280;40450;55.848;-3.572;2022-07-01T04:34:08;98998.14;;;18.50;65.21
54554;BME280;40450;55.848;-3.572;2022-07-01T04:36:38;98997.44;;;18.59;63.44
54554;BME280;40450;55.848;-3.572;2022-07-01T04:39:08;99000.03;;;18.35;64.56
54554;BME280;40450;55.848;-3.572;2022-07-01T04:41:39;99000.22;;;18.41;64.13
54554;BME280;40450;55.848;-3.572;2022-07-01T04:44:10;99002.98;;;18.40;63.21
54554;BME280;40450;55.848;-3.572;2022-07-01T04:46:40;99010.74;;;18.42;64.72
54554;BME280;40450;55.848;-3.572;2022-07-01T04:49:10;99019.44;;;18.37;63.74
54554;BME280;40450;55.848;-3.572;2022-07-01T04:51:41;99025.03;;;17.22;66.69
54554;BME280;40450;55.848;-3.572;2022-07-01T04:54:12;99029.88;;;18.47;64.07
54554;BME280;40450;55.848;-3.572;2022-07-01T04:56:41;99036.65;;;18.03;65.24
54554;BME280;40450;55.848;-3.572;2022-07-01T04:59:12;99036.80;;;18.44;64.72
54554;BME280;40450;55.848;-3.572;2022-07-01T05:01:43;99037.71;;;18.47;64.26
54554;BME280;40450;55.848;-3.572;2022-07-01T05:04:12;99036.69;;;17.98;65.62
54554;BME280;40450;55.848;-3.572;2022-07-01T05:06:43;99034.64;;;18.08;65.10
54554;BME280;40450;55.848;-3.572;2022-07-01T05:09:13;99034.39;;;18.17;65.43
54554;BME280;40450;55.848;-3.572;2022-07-01T05:11:43;99040.85;;;17.46;67.35
54554;BME280;40450;55.848;-3.572;2022-07-01T05:14:14;99043.34;;;17.63;66.48
54554;BME280;40450;55.848;-3.572;2022-07-01T05:16:44;99040.27;;;18.17;65.43
54554;BME280;40450;55.848;-3.572;2022-07-01T05:19:15;99040.42;;;18.47;64.71
54554;BME280;40450;55.848;-3.572;2022-07-01T05:21:45;99039.47;;;17.57;67.55
54554;BME280;40450;55.848;-3.572;2022-07-01T05:24:15;99039.16;;;17.57;66.97
54554;BME280;40450;55.848;-3.572;2022-07-01T05:26:46;99037.99;;;17.19;69.26
54554;BME280;40450;55.848;-3.572;2022-07-01T05:29:16;99041.28;;;17.03;69.88
54554;BME280;40450;55.848;-3.572;2022-07-01T05:31:46;99037.73;;;17.58;68.70
54554;BME280;40450;55.848;-3.572;2022-07-01T05:34:18;99034.63;;;17.82;68.24
54554;BME280;40450;55.848;-3.572;2022-07-01T05:36:47;99032.25;;;18.01;66.95
54554;BME280;40450;55.848;-3.572;2022-07-01T05:39:18;99026.83;;;18.14;66.79
54554;BME280;40450;55.848;-3.572;2022-07-01T05:41:48;99028.20;;;17.90;66.75
54554;BME280;40450;55.848;-3.572;2022-07-01T05:44:18;99028.82;;;18.14;65.86
54554;BME280;40450;55.848;-3.572;2022-07-01T05:46:49;99028.10;;;18.16;66.33
54554;BME280;40450;55.848;-3.572;2022-07-01T05:49:19;99028.40;;;18.35;65.63
54554;BME280;40450;55.848;-3.572;2022-07-01T05:51:50;99028.99;;;18.12;66.34
54554;BME280;40450;55.848;-3.572;2022-07-01T05:54:20;99026.66;;;18.05;66.41
54554;BME280;40450;55.848;-3.572;2022-07-01T05:56:51;99023.46;;;17.73;66.93
54554;BME280;40450;55.848;-3.572;2022-07-01T05:59:21;99023.67;;;17.45;68.38
54554;BME280;40450;55.848;-3.572;2022-07-01T06:01:51;99019.44;;;17.60;68.31
54554;BME280;40450;55.848;-3.572;2022-07-01T06:04:22;99018.81;;;17.71;68.05
54554;BME280;40450;55.848;-3.572;2022-07-01T06:06:52;99020.06;;;17.81;67.69
54554;BME280;40450;55.848;-3.572;2022-07-01T06:09:23;99019.87;;;17.75;68.08
54554;BME280;40450;55.848;-3.572;2022-07-01T06:11:53;99015.38;;;17.91;68.34
54554;BME280;40450;55.848;-3.572;2022-07-01T06:14:26;99016.51;;;18.19;66.71
54554;BME280;40450;55.848;-3.572;2022-07-01T06:16:54;99018.72;;;18.08;66.84
54554;BME280;40450;55.848;-3.572;2022-07-01T06:19:24;99027.91;;;18.33;66.14
54554;BME280;40450;55.848;-3.572;2022-07-01T06:21:55;99027.53;;;17.51;68.71
54554;BME280;40450;55.848;-3.572;2022-07-01T06:24:25;99026.46;;;18.04;67.50
54554;BME280;40450;55.848;-3.572;2022-07-01T06:26:55;99028.69;;;18.42;66.17
54554;BME280;40450;55.848;-3.572;2022-07-01T06:29:26;99030.85;;;18.58;65.05
54554;BME280;40450;55.848;-3.572;2022-07-01T06:31:56;99030.81;;;18.43;65.36
54554;BME280;40450;55.848;-3.572;2022-07-01T06:34:26;99032.16;;;18.52;65.56
54554;BME280;40450;55.848;-3.572;2022-07-01T06:36:57;99032.24;;;18.40;65.52
54554;BME280;40450;55.848;-3.572;2022-07-01T06:39:27;99034.89;;;18.66;64.80
54554;BME280;40450;55.848;-3.572;2022-07-01T06:41:57;99036.17;;;18.69;64.99
54554;BME280;40450;55.848;-3.572;2022-07-01T06:44:28;99033.99;;;18.44;65.26
54554;BME280;40450;55.848;-3.572;2022-07-01T06:46:58;99030.33;;;18.26;65.48
54554;BME280;40450;55.848;-3.572;2022-07-01T06:49:28;99034.50;;;17.82;66.47
54554;BME280;40450;55.848;-3.572;2022-07-01T06:51:59;99036.64;;;18.05;66.63
54554;BME280;40450;55.848;-3.572;2022-07-01T06:54:29;99037.40;;;18.41;65.91
54554;BME280;40450;55.848;-3.572;2022-07-01T06:56:59;99040.03;;;18.71;64.56
54554;BME280;40450;55.848;-3.572;2022-07-01T06:59:30;99037.86;;;18.58;65.21
54554;BME280;40450;55.848;-3.572;2022-07-01T07:02:00;99039.92;;;18.71;64.29
54554;BME280;40450;55.848;-3.572;2022-07-01T07:04:31;99041.92;;;18.63;64.77
54554;BME280;40450;55.848;-3.572;2022-07-01T07:07:01;99040.24;;;18.30;65.10
54554;BME280;40450;55.848;-3.572;2022-07-01T07:09:31;99045.58;;;18.88;64.48
54554;BME280;40450;55.848;-3.572;2022-07-01T07:12:04;99042.88;;;19.17;63.72
54554;BME280;40450;55.848;-3.572;2022-07-01T07:14:38;99043.41;;;18.99;62.74
54554;BME280;40450;55.848;-3.572;2022-07-01T07:17:03;99042.48;;;18.75;63.01
54554;BME280;40450;55.848;-3.572;2022-07-01T07:19:33;99037.40;;;18.56;63.92
54554;BME280;40450;55.848;-3.572;2022-07-01T07:22:03;99033.75;;;19.10;63.57
54554;BME280;40450;55.848;-3.572;2022-07-01T07:24:33;99034.87;;;18.90;63.57
54554;BME280;40450;55.848;-3.572;2022-07-01T07:27:04;99029.55;;;19.15;62.78
54554;BME280;40450;55.848;-3.572;2022-07-01T07:29:34;99028.66;;;18.96;62.02
54554;BME280;40450;55.848;-3.572;2022-07-01T07:32:06;99019.97;;;18.03;63.86
54554;BME280;40450;55.848;-3.572;2022-07-01T07:34:35;99019.16;;;17.81;65.51
54554;BME280;40450;55.848;-3.572;2022-07-01T07:37:05;99014.08;;;17.39;67.41
54554;BME280;40450;55.848;-3.572;2022-07-01T07:39:36;99011.25;;;17.38;67.80
54554;BME280;40450;55.848;-3.572;2022-07-01T07:42:06;99010.14;;;17.02;69.10
54554;BME280;40450;55.848;-3.572;2022-07-01T07:44:36;99008.94;;;17.39;68.24
54554;BME280;40450;55.848;-3.572;2022-07-01T07:47:07;99005.54;;;17.61;67.24
54554;BME280;40450;55.848;-3.572;2022-07-01T07:49:37;99005.54;;;18.35;66.59
54554;BME280;40450;55.848;-3.572;2022-07-01T07:52:07;99000.42;;;17.47;67.38
54554;BME280;40450;55.848;-3.572;2022-07-01T07:54:38;99000.20;;;17.64;67.65
54554;BME280;40450;55.848;-3.572;2022-07-01T07:57:09;99003.94;;;18.26;66.10
54554;BME280;40450;55.848;-3.572;2022-07-01T07:59:38;99006.70;;;18.39;65.31
54554;BME280;40450;55.848;-3.572;2022-07-01T08:02:09;99001.23;;;18.27;64.23
54554;BME280;40450;55.848;-3.572;2022-07-01T08:04:39;99002.04;;;17.39;66.69
54554;BME280;40450;55.848;-3.572;2022-07-01T08:07:10;99007.89;;;15.11;75.13
54554;BME280;40450;55.848;-3.572;2022-07-01T08:09:40;99004.29;;;15.39;74.34
54554;BME280;40450;55.848;-3.572;2022-07-01T08:12:11;99000.45;;;16.60;69.65
54554;BME280;40450;55.848;-3.572;2022-07-01T08:14:41;99000.34;;;16.53;70.58
54554;BME280;40450;55.848;-3.572;2022-07-01T08:17:11;98998.78;;;16.94;69.63
54554;BME280;40450;55.848;-3.572;2022-07-01T08:19:42;99005.28;;;16.79;70.82
54554;BME280;40450;55.848;-3.572;2022-07-01T08:22:13;99003.92;;;17.50;68.57
54554;BME280;40450;55.848;-3.572;2022-07-01T08:24:43;99005.68;;;18.02;68.15
54554;BME280;40450;55.848;-3.572;2022-07-01T08:27:12;99004.17;;;18.28;65.59
54554;BME280;40450;55.848;-3.572;2022-07-01T08:29:43;99001.87;;;18.12;65.03
54554;BME280;40450;55.848;-3.572;2022-07-01T08:32:13;99005.77;;;17.73;66.04
54554;BME280;40450;55.848;-3.572;2022-07-01T08:34:44;99009.00;;;18.37;64.95
54554;BME280;40450;55.848;-3.572;2022-07-01T08:37:14;99008.23;;;19.32;62.38
54554;BME280;40450;55.848;-3.572;2022-07-01T08:39:44;99009.52;;;19.04;61.02
54554;BME280;40450;55.848;-3.572;2022-07-01T08:42:15;99011.01;;;18.83;61.64
54554;BME280;40450;55.848;-3.572;2022-07-01T08:44:45;99010.81;;;17.72;65.12
54554;BME280;40450;55.848;-3.572;2022-07-01T08:47:15;99012.59;;;17.29;66.70
54554;BME280;40450;55.848;-3.572;2022-07-01T08:49:46;99013.39;;;17.67;65.70
54554;BME280;40450;55.848;-3.572;2022-07-01T08:52:16;99013.84;;;18.55;63.17
54554;BME280;40450;55.848;-3.572;2022-07-01T08:54:46;99009.53;;;18.20;62.62
54554;BME280;40450;55.848;-3.572;2022-07-01T08:57:20;99010.38;;;17.99;64.81
54554;BME280;40450;55.848;-3.572;2022-07-01T09:02:17;99008.80;;;18.67;62.15
54554;BME280;40450;55.848;-3.572;2022-07-01T09:07:18;99009.75;;;19.41;59.02
54554;BME280;40450;55.848;-3.572;2022-07-01T09:09:48;99005.01;;;19.93;59.25
54554;BME280;40450;55.848;-3.572;2022-07-01T09:12:21;99003.51;;;20.47;57.81
54554;BME280;40450;55.848;-3.572;2022-07-01T09:14:49;99006.13;;;19.81;56.65
54554;BME280;40450;55.848;-3.572;2022-07-01T09:17:19;99010.73;;;18.74;59.57
54554;BME280;40450;55.848;-3.572;2022-07-01T09:19:50;99012.91;;;18.67;61.26
54554;BME280;40450;55.848;-3.572;2022-07-01T09:24:51;99014.58;;;18.91;57.70
54554;BME280;40450;55.848;-3.572;2022-07-01T09:27:26;99009.10;;;20.20;56.98
54554;BME280;40450;55.848;-3.572;2022-07-01T09:29:52;99008.55;;;20.17;52.58
54554;BME280;40450;55.848;-3.572;2022-07-01T09:32:22;99010.37;;;20.15;52.68
54554;BME280;40450;55.848;-3.572;2022-07-01T09:34:53;99012.18;;;20.11;53.47
54554;BME280;40450;55.848;-3.572;2022-07-01T09:37:23;99016.38;;;18.49;58.24
54554;BME280;40450;55.848;-3.572;2022-07-01T09:39:55;99016.24;;;19.50;55.03
54554;BME280;40450;55.848;-3.572;2022-07-01T09:42:25;99016.10;;;19.54;53.83
54554;BME280;40450;55.848;-3.572;2022-07-01T09:44:54;99017.24;;;19.44;54.76
54554;BME280;40450;55.848;-3.572;2022-07-01T09:47:24;99024.66;;;18.99;54.79
54554;BME280;40450;55.848;-3.572;2022-07-01T09:49:55;99020.49;;;18.07;57.88
54554;BME280;40450;55.848;-3.572;2022-07-01T09:52:24;99022.95;;;19.07;55.76
54554;BME280;40450;55.848;-3.572;2022-07-01T09:54:55;99015.02;;;19.66;54.09
54554;BME280;40450;55.848;-3.572;2022-07-01T09:57:25;99022.73;;;18.66;57.46
54554;BME280;40450;55.848;-3.572;2022-07-01T09:59:55;99018.72;;;19.93;53.18
54554;BME280;40450;55.848;-3.572;2022-07-01T10:02:28;99017.19;;;19.72;53.60
54554;BME280;40450;55.848;-3.572;2022-07-01T10:05:01;99014.90;;;20.16;53.16
54554;BME280;40450;55.848;-3.572;2022-07-01T10:07:37;99016.40;;;19.90;53.37
54554;BME280;40450;55.848;-3.572;2022-07-01T10:10:09;99017.22;;;19.89;54.34
54554;BME280;40450;55.848;-3.572;2022-07-01T10:12:33;99016.85;;;20.55;52.56
54554;BME280;40450;55.848;-3.572;2022-07-01T10:14:58;99014.70;;;19.59;54.70
54554;BME280;40450;55.848;-3.572;2022-07-01T10:17:29;99016.20;;;19.95;53.43
54554;BME280;40450;55.848;-3.572;2022-07-01T10:20:06;99023.35;;;19.17;56.96
54554;BME280;40450;55.848;-3.572;2022-07-01T10:22:29;99012.87;;;20.30;54.61
54554;BME280;40450;55.848;-3.572;2022-07-01T10:27:30;99010.19;;;20.17;54.27
54554;BME280;40450;55.848;-3.572;2022-07-01T10:32:30;99004.85;;;19.89;55.70
54554;BME280;40450;55.848;-3.572;2022-07-01T10:35:04;99000.70;;;20.62;54.17
54554;BME280;40450;55.848;-3.572;2022-07-01T10:37:30;98998.40;;;19.64;57.18
54554;BME280;40450;55.848;-3.572;2022-07-01T10:40:03;98995.11;;;20.17;54.45
54554;BME280;40450;55.848;-3.572;2022-07-01T10:42:33;98987.43;;;20.42;54.42
54554;BME280;40450;55.848;-3.572;2022-07-01T10:45:05;98986.47;;;20.64;55.00
54554;BME280;40450;55.848;-3.572;2022-07-01T10:47:33;98985.48;;;19.40;56.97
54554;BME280;40450;55.848;-3.572;2022-07-01T10:50:07;98984.48;;;19.73;56.67
54554;BME280;40450;55.848;-3.572;2022-07-01T10:52:33;98990.32;;;19.54;57.67
54554;BME280;40450;55.848;-3.572;2022-07-01T10:55:05;98985.63;;;19.73;54.92
54554;BME280;40450;55.848;-3.572;2022-07-01T10:57:38;98994.08;;;18.89;56.79
54554;BME280;40450;55.848;-3.572;2022-07-01T11:02:36;98991.52;;;19.23;56.88
54554;BME280;40450;55.848;-3.572;2022-07-01T11:05:09;98993.22;;;17.20;64.08
54554;BME280;40450;55.848;-3.572;2022-07-01T11:07:38;98988.55;;;17.03;64.92
54554;BME280;40450;55.848;-3.572;2022-07-01T11:10:07;98990.04;;;18.40;61.24
54554;BME280;40450;55.848;-3.572;2022-07-01T11:12:36;98984.37;;;17.75;63.40
54554;BME280;40450;55.848;-3.572;2022-07-01T11:15:09;98983.65;;;18.76;57.09
54554;BME280;40450;55.848;-3.572;2022-07-01T11:17:43;98983.88;;;18.62;56.42
54554;BME280;40450;55.848;-3.572;2022-07-01T11:20:08;98982.31;;;18.38;56.34
54554;BME280;40450;55.848;-3.572;2022-07-01T11:22:38;98977.14;;;18.82;57.33
54554;BME280;40450;55.848;-3.572;2022-07-01T11:25:10;98969.13;;;19.47;54.56
54554;BME280;40450;55.848;-3.572;2022-07-01T11:27:39;98972.28;;;20.18;53.42
54554;BME280;40450;55.848;-3.572;2022-07-01T11:30:10;98971.76;;;19.68;52.32
54554;BME280;40450;55.848;-3.572;2022-07-01T11:32:41;98976.17;;;19.54;53.68
54554;BME280;40450;55.848;-3.572;2022-07-01T11:35:15;98978.65;;;19.52;53.22
54554;BME280;40450;55.848;-3.572;2022-07-01T11:37:41;98972.81;;;19.51;53.44
54554;BME280;40450;55.848;-3.572;2022-07-01T11:40:12;98975.21;;;18.81;55.52
54554;BME280;40450;55.848;-3.572;2022-07-01T11:42:41;98973.95;;;18.97;56.14
54554;BME280;40450;55.848;-3.572;2022-07-01T11:47:41;98969.31;;;19.86;52.63
54554;BME280;40450;55.848;-3.572;2022-07-01T11:50:11;98967.62;;;19.35;53.46
54554;BME280;40450;55.848;-3.572;2022-07-01T11:52:42;98969.17;;;20.19;53.34
54554;BME280;40450;55.848;-3.572;2022-07-01T11:55:12;98972.57;;;19.66;52.95
54554;BME280;40450;55.848;-3.572;2022-07-01T11:57:42;98971.43;;;20.14;50.22
54554;BME280;40450;55.848;-3.572;2022-07-01T12:00:14;98973.47;;;20.23;51.87
54554;BME280;40450;55.848;-3.572;2022-07-01T12:02:43;98969.43;;;20.05;52.14
54554;BME280;40450;55.848;-3.572;2022-07-01T12:05:13;98969.87;;;19.56;54.88
54554;BME280;40450;55.848;-3.572;2022-07-01T12:07:45;98964.56;;;19.75;54.15
54554;BME280;40450;55.848;-3.572;2022-07-01T12:10:14;98968.69;;;20.25;53.52
54554;BME280;40450;55.848;-3.572;2022-07-01T12:12:44;98967.93;;;20.24;51.77
54554;BME280;40450;55.848;-3.572;2022-07-01T12:15:16;98968.77;;;20.24;53.98
54554;BME280;40450;55.848;-3.572;2022-07-01T12:17:45;98966.22;;;20.79;51.48
54554;BME280;40450;55.848;-3.572;2022-07-01T12:20:15;98961.65;;;20.88;50.10
54554;BME280;40450;55.848;-3.572;2022-07-01T12:22:45;98964.04;;;20.90;52.43
54554;BME280;40450;55.848;-3.572;2022-07-01T12:25:16;98965.89;;;20.69;50.22
54554;BME280;40450;55.848;-3.572;2022-07-01T12:27:46;98965.56;;;21.31;49.83
54554;BME280;40450;55.848;-3.572;2022-07-01T12:30:23;98965.33;;;21.40;48.03
54554;BME280;40450;55.848;-3.572;2022-07-01T12:32:47;98971.07;;;21.10;47.74
54554;BME280;40450;55.848;-3.572;2022-07-01T12:35:23;98964.74;;;21.20;46.46
54554;BME280;40450;55.848;-3.572;2022-07-01T12:37:48;98964.96;;;21.09;47.37
54554;BME280;40450;55.848;-3.572;2022-07-01T12:40:21;98962.95;;;21.36;47.23
54554;BME280;40450;55.848;-3.572;2022-07-01T12:42:48;98956.86;;;21.29;49.30
54554;BME280;40450;55.848;-3.572;2022-07-01T12:45:23;98962.63;;;20.41;51.39
54554;BME280;40450;55.848;-3.572;2022-07-01T12:47:51;98957.20;;;21.29;47.91
54554;BME280;40450;55.848;-3.572;2022-07-01T12:50:21;98958.34;;;22.25;47.81
54554;BME280;40450;55.848;-3.572;2022-07-01T12:52:58;98955.98;;;22.08;45.98
54554;BME280;40450;55.848;-3.572;2022-07-01T12:55:21;98960.22;;;22.30;45.44
54554;BME280;40450;55.848;-3.572;2022-07-01T12:57:53;98952.71;;;21.47;45.66
54554;BME280;40450;55.848;-3.572;2022-07-01T13:00:23;98955.17;;;21.06;46.05
54554;BME280;40450;55.848;-3.572;2022-07-01T13:02:52;98953.36;;;21.21;44.45
54554;BME280;40450;55.848;-3.572;2022-07-01T13:05:22;98954.24;;;21.33;44.62
54554;BME280;40450;55.848;-3.572;2022-07-01T13:07:52;98950.96;;;21.38;46.13
54554;BME280;40450;55.848;-3.572;2022-07-01T13:10:22;98952.73;;;20.97;46.76
54554;BME280;40450;55.848;-3.572;2022-07-01T13:12:52;98955.02;;;19.94;50.32
54554;BME280;40450;55.848;-3.572;2022-07-01T13:15:23;98951.16;;;19.46;53.09
54554;BME280;40450;55.848;-3.572;2022-07-01T13:17:53;98949.42;;;19.84;52.08
54554;BME280;40450;55.848;-3.572;2022-07-01T13:20:24;98947.15;;;19.75;51.54
54554;BME280;40450;55.848;-3.572;2022-07-01T13:22:54;98947.68;;;20.04;53.29
54554;BME280;40450;55.848;-3.572;2022-07-01T13:25:24;98951.19;;;19.30;56.09